Time;durP1;ratioP1;P1;durP2;ratioP2;P2;SDS_P1;SDS_P2;PMS_P1;PMS_P2;Temp;Humidity;BMP_temperature;BMP_pressure;BME280_temperature;BME280_humidity;BME280_pressure;Samples;Min_cycle;Max_cycle;Signal;HPM_P1;HPM_P2
2023/03/12 00:01:20;;;;;;;15.80;7.35;;;0.70;99.90;;;;;;4970864;28;20548;-56
2023/03/12 00:03:46;;;;;;;6.10;4.97;;;0.70;99.90;;;;;;4969242;28;20149;-55
2023/03/12 00:06:13;;;;;;;12.30;6.22;;;0.70;99.90;;;;;;4970293;28;20033;-53
2023/03/12 00:08:39;;;;;;;13.10;6.05;;;0.70;99.90;;;;;;4970214;28;20047;-53
2023/03/12 00:11:07;;;;;;;9.52;6.05;;;0.70;99.90;;;;;;4972714;28;20521;-51
2023/03/12 00:13:33;;;;;;;10.13;5.47;;;0.80;99.90;;;;;;5010761;23;20034;-50
2023/03/12 00:16:06;;;;;;;13.70;5.55;;;0.80;99.90;;;;;;4966967;28;20031;-52
2023/03/12 00:18:31;;;;;;;7.40;5.43;;;0.80;99.90;;;;;;4970416;28;20077;-50
2023/03/12 00:20:57;;;;;;;6.88;4.97;;;0.80;99.90;;;;;;4973368;28;20030;-53
2023/03/12 00:23:22;;;;;;;13.40;6.85;;;0.80;99.90;;;;;;4973258;28;20497;-50
2023/03/12 00:25:48;;;;;;;8.23;5.40;;;0.80;99.90;;;;;;4973069;28;20027;-51
2023/03/12 00:28:13;;;;;;;11.13;5.68;;;0.80;99.90;;;;;;4972841;28;20030;-48
2023/03/12 00:30:39;;;;;;;7.85;5.78;;;0.70;99.90;;;;;;4972818;28;20517;-48
2023/03/12 00:33:05;;;;;;;14.13;5.82;;;0.70;99.90;;;;;;4972724;28;20394;-52
2023/03/12 00:35:31;;;;;;;9.38;6.05;;;0.70;99.90;;;;;;4972150;28;20035;-51
2023/03/12 00:37:57;;;;;;;15.88;7.57;;;0.60;99.90;;;;;;4971850;28;20534;-47
2023/03/12 00:40:22;;;;;;;7.30;5.30;;;0.70;99.90;;;;;;4971466;28;20287;-49
2023/03/12 00:42:48;;;;;;;13.93;6.20;;;0.60;99.90;;;;;;4972725;28;20506;-50
2023/03/12 00:45:13;;;;;;;10.20;5.97;;;0.70;99.90;;;;;;4972958;28;20094;-47
2023/03/12 00:47:39;;;;;;;13.65;6.55;;;0.70;99.90;;;;;;4971623;28;20479;-52
2023/03/12 00:50:05;;;;;;;15.57;7.18;;;0.70;99.90;;;;;;4971519;28;20027;-47
2023/03/12 00:52:30;;;;;;;11.73;5.68;;;0.70;99.90;;;;;;4972713;28;20086;-52
2023/03/12 00:54:57;;;;;;;9.43;6.63;;;0.70;99.90;;;;;;4972786;28;20030;-53
2023/03/12 00:57:23;;;;;;;11.25;6.35;;;0.70;99.90;;;;;;4972691;28;20077;-50
2023/03/12 00:59:49;;;;;;;11.95;6.60;;;0.80;99.90;;;;;;4972749;28;20019;-51
2023/03/12 01:02:15;;;;;;;7.45;5.43;;;0.90;99.90;;;;;;4972771;28;20109;-53
2023/03/12 01:04:40;;;;;;;12.57;6.13;;;0.90;99.90;;;;;;4972827;28;20076;-51
2023/03/12 01:07:06;;;;;;;12.85;6.20;;;1.00;99.90;;;;;;4972974;28;20023;-52
2023/03/12 01:09:31;;;;;;;10.10;6.30;;;1.00;99.90;;;;;;4972858;28;20039;-49
2023/03/12 01:11:57;;;;;;;17.27;6.43;;;1.10;99.90;;;;;;4973312;28;20019;-47
2023/03/12 01:14:23;;;;;;;15.07;7.22;;;1.00;99.90;;;;;;4971705;28;20121;-52
2023/03/12 01:16:48;;;;;;;13.70;6.00;;;1.00;99.90;;;;;;4972586;28;20091;-53
2023/03/12 01:19:14;;;;;;;11.10;6.40;;;1.00;99.90;;;;;;4973019;28;20118;-47
2023/03/12 01:21:40;;;;;;;7.53;5.65;;;1.00;99.90;;;;;;4972870;28;20065;-48
2023/03/12 01:24:06;;;;;;;11.45;5.93;;;1.00;99.90;;;;;;4972745;28;20035;-50
2023/03/12 01:26:31;;;;;;;13.18;6.47;;;0.90;99.90;;;;;;4973194;28;20572;-52
2023/03/12 01:28:57;;;;;;;12.93;6.50;;;0.80;99.90;;;;;;4973413;28;20023;-50
2023/03/12 01:31:22;;;;;;;10.10;5.50;;;0.90;99.90;;;;;;4974188;28;20082;-52
2023/03/12 01:33:50;;;;;;;9.50;6.00;;;0.90;99.90;;;;;;4972818;28;20506;-52
2023/03/12 01:36:24;;;;;;;7.80;5.65;;;0.90;99.90;;;;;;4972661;28;20105;-49
2023/03/12 01:38:52;;;;;;;16.48;6.35;;;0.90;99.90;;;;;;4972649;28;20037;-51
2023/03/12 01:41:18;;;;;;;11.57;6.30;;;0.90;99.90;;;;;;4972890;28;20113;-51
2023/03/12 01:43:44;;;;;;;13.10;6.38;;;0.90;99.90;;;;;;4972787;28;20077;-51
2023/03/12 01:46:31;;;;;;;11.52;6.68;;;0.90;99.90;;;;;;4971521;28;20450;-52
2023/03/12 01:49:16;;;;;;;11.27;6.13;;;0.90;99.90;;;;;;4976655;28;20029;-53
2023/03/12 01:51:53;;;;;;;11.95;7.07;;;0.90;99.90;;;;;;4976284;28;20031;-54
2023/03/12 01:54:39;;;;;;;13.02;6.47;;;0.90;99.90;;;;;;4976167;28;20490;-50
2023/03/12 01:57:10;;;;;;;12.73;6.93;;;0.70;99.90;;;;;;4976114;28;20034;-49
2023/03/12 01:59:44;;;;;;;12.73;6.90;;;0.70;99.90;;;;;;4974565;28;20031;-53
2023/03/12 02:02:10;;;;;;;9.93;6.68;;;0.60;99.90;;;;;;4976131;28;20046;-50
2023/03/12 02:04:38;;;;;;;17.83;6.63;;;0.60;99.90;;;;;;4975961;28;20469;-54
2023/03/12 02:07:08;;;;;;;13.20;7.25;;;0.50;99.90;;;;;;4976331;28;20015;-50
2023/03/12 02:09:38;;;;;;;11.48;7.43;;;0.50;99.90;;;;;;4975451;28;20397;-52
2023/03/12 02:12:05;;;;;;;9.05;6.90;;;0.50;99.90;;;;;;4975630;28;20085;-52
2023/03/12 02:14:30;;;;;;;11.23;5.93;;;0.50;99.90;;;;;;4975056;28;20061;-53
2023/03/12 02:16:56;;;;;;;14.48;6.78;;;0.60;99.90;;;;;;4974857;28;20030;-51
2023/03/12 02:19:48;;;;;;;8.65;6.63;;;0.60;99.90;;;;;;4974203;28;20102;-49
2023/03/12 02:22:14;;;;;;;9.88;6.25;;;0.60;99.90;;;;;;4975300;28;20431;-49
2023/03/12 02:24:52;;;;;;;10.45;6.32;;;0.60;99.90;;;;;;4975610;28;20033;-50
2023/03/12 02:27:20;;;;;;;11.88;6.95;;;0.60;99.90;;;;;;4975221;28;20526;-50
2023/03/12 02:29:46;;;;;;;12.57;6.88;;;0.50;99.90;;;;;;4975172;28;20054;-49
2023/03/12 02:32:21;;;;;;;11.57;6.95;;;0.50;99.90;;;;;;4975484;28;20514;-50
2023/03/12 02:34:49;;;;;;;;;;;0.50;99.90;;;;;;4975664;28;20167;-51
2023/03/12 02:37:15;;;;;;;16.50;7.00;;;0.60;99.90;;;;;;4974675;28;19906;-53
2023/03/12 02:39:43;;;;;;;11.55;7.35;;;0.60;99.90;;;;;;4975422;28;20066;-47
2023/03/12 02:42:08;;;;;;;12.70;6.85;;;0.80;99.90;;;;;;4975099;28;20031;-49
2023/03/12 02:44:36;;;;;;;12.82;7.20;;;0.80;99.90;;;;;;4973761;28;20023;-52
2023/03/12 02:47:02;;;;;;;8.90;5.68;;;0.90;99.90;;;;;;4974816;28;20101;-50
2023/03/12 02:49:32;;;;;;;9.75;6.38;;;0.80;99.90;;;;;;4974616;28;20024;-51
2023/03/12 02:51:58;;;;;;;12.80;6.70;;;0.70;99.90;;;;;;4973406;28;20166;-51
2023/03/12 02:54:24;;;;;;;14.50;7.53;;;0.70;99.90;;;;;;4973181;28;20121;-49
2023/03/12 02:56:51;;;;;;;18.48;5.80;;;0.70;99.90;;;;;;4974675;28;20034;-52
2023/03/12 02:59:19;;;;;;;13.02;6.55;;;0.70;99.90;;;;;;4972978;28;20026;-50
2023/03/12 03:01:45;;;;;;;15.82;6.28;;;0.70;99.90;;;;;;4974496;28;20107;-47
2023/03/12 03:04:12;;;;;;;8.23;6.68;;;0.70;99.90;;;;;;4974250;28;20122;-49
2023/03/12 03:06:40;;;;;;;10.25;6.70;;;0.70;99.90;;;;;;4974278;28;20074;-49
2023/03/12 03:09:06;;;;;;;11.32;7.22;;;0.70;99.90;;;;;;4972910;28;20023;-48
2023/03/12 03:11:31;;;;;;;23.70;7.60;;;0.70;99.90;;;;;;4975040;28;20033;-50
2023/03/12 03:13:57;;;;;;;11.02;6.32;;;0.70;99.90;;;;;;4976367;28;20073;-50
2023/03/12 03:16:23;;;;;;;11.38;6.65;;;0.70;99.90;;;;;;4974051;28;20422;-47
2023/03/12 03:18:49;;;;;;;12.80;6.47;;;0.70;99.90;;;;;;4975517;28;20410;-49
2023/03/12 03:21:16;;;;;;;15.18;6.97;;;0.80;99.90;;;;;;4975537;28;20376;-51
2023/03/12 03:23:43;;;;;;;13.38;7.07;;;0.80;99.90;;;;;;4974789;28;20031;-48
2023/03/12 03:26:09;;;;;;;11.73;5.85;;;0.90;99.90;;;;;;4975121;28;20027;-48
2023/03/12 03:28:34;;;;;;;12.13;7.07;;;0.80;99.90;;;;;;4973014;28;20030;-50
2023/03/12 03:31:00;;;;;;;15.10;7.28;;;0.80;99.90;;;;;;4974028;28;20031;-52
2023/03/12 03:33:31;;;;;;;11.25;6.35;;;0.80;99.90;;;;;;4973765;28;20078;-50
2023/03/12 03:35:58;;;;;;;11.10;6.50;;;0.70;99.90;;;;;;4973796;28;20029;-52
2023/03/12 03:38:25;;;;;;;13.55;6.43;;;0.70;99.90;;;;;;4973631;28;20039;-49
2023/03/12 03:40:51;;;;;;;8.95;6.57;;;0.70;99.90;;;;;;4973578;28;20036;-53
2023/03/12 03:43:17;;;;;;;11.05;6.57;;;0.80;99.90;;;;;;4973864;28;20030;-48
2023/03/12 03:45:46;;;;;;;16.10;6.38;;;0.80;99.90;;;;;;4973567;28;20034;-47
2023/03/12 03:48:12;;;;;;;9.70;6.20;;;0.90;99.90;;;;;;4973462;28;20054;-48
2023/03/12 03:50:38;;;;;;;11.23;6.35;;;0.90;99.90;;;;;;4973856;28;20093;-51
2023/03/12 03:53:05;;;;;;;14.40;7.40;;;0.90;99.90;;;;;;4973413;28;20110;-48
2023/03/12 03:55:34;;;;;;;12.70;5.78;;;1.00;99.90;;;;;;4972180;28;20039;-51
2023/03/12 03:57:59;;;;;;;11.55;5.70;;;1.00;99.90;;;;;;4973405;28;20038;-49
2023/03/12 04:00:25;;;;;;;9.20;6.28;;;1.00;99.90;;;;;;4973128;28;20454;-53
2023/03/12 04:02:50;;;;;;;15.13;6.85;;;1.10;99.90;;;;;;4973302;28;20026;-48
2023/03/12 04:05:18;;;;;;;10.75;5.70;;;1.10;99.90;;;;;;4973147;28;20023;-47
2023/03/12 04:07:44;;;;;;;10.13;5.95;;;1.00;99.90;;;;;;4973345;28;20019;-51
2023/03/12 04:10:10;;;;;;;10.18;5.72;;;1.00;99.90;;;;;;4972616;28;20019;-49
2023/03/12 04:12:35;;;;;;;11.50;6.38;;;1.10;99.90;;;;;;4971950;28;20027;-51
2023/03/12 04:15:01;;;;;;;14.00;6.95;;;1.10;99.90;;;;;;4972598;28;20399;-51
2023/03/12 04:17:26;;;;;;;9.57;5.78;;;1.10;99.90;;;;;;4971617;28;20090;-50
2023/03/12 04:19:52;;;;;;;10.70;5.80;;;1.20;99.90;;;;;;4972994;28;20023;-48
2023/03/12 04:22:17;;;;;;;11.75;6.82;;;1.20;99.90;;;;;;4973007;28;20369;-48
2023/03/12 04:24:44;;;;;;;10.80;5.78;;;1.20;99.90;;;;;;4972893;28;20030;-51
2023/03/12 04:27:09;;;;;;;11.02;5.28;;;1.10;99.90;;;;;;4973029;28;20464;-51
2023/03/12 04:29:35;;;;;;;9.18;6.07;;;1.10;99.90;;;;;;4972783;28;20066;-52
2023/03/12 04:32:00;;;;;;;8.32;4.65;;;1.10;99.90;;;;;;4972908;28;20480;-51
2023/03/12 04:34:26;;;;;;;9.10;5.45;;;1.10;99.90;;;;;;4972661;28;20487;-49
2023/03/12 04:36:51;;;;;;;10.82;6.97;;;1.00;99.90;;;;;;4972680;28;20059;-49
2023/03/12 04:39:18;;;;;;;11.35;5.63;;;1.00;99.90;;;;;;4972773;28;20041;-47
2023/03/12 04:41:44;;;;;;;11.85;6.93;;;0.90;99.90;;;;;;4972748;28;20077;-53
2023/03/12 04:44:10;;;;;;;9.13;5.90;;;0.80;99.90;;;;;;4971374;28;20031;-51
2023/03/12 04:46:36;;;;;;;18.00;6.13;;;0.70;99.90;;;;;;4972815;28;20307;-49
2023/03/12 04:49:02;;;;;;;8.75;6.60;;;0.50;99.90;;;;;;4972963;28;20533;-47
2023/03/12 04:51:28;;;;;;;12.35;6.40;;;0.50;99.90;;;;;;4973236;28;20027;-47
2023/03/12 04:53:55;;;;;;;11.43;6.60;;;0.50;99.90;;;;;;4971609;28;20643;-48
2023/03/12 04:56:20;;;;;;;12.82;6.25;;;0.50;99.90;;;;;;4971717;28;20038;-54
2023/03/12 04:58:46;;;;;;;11.57;6.32;;;0.50;99.90;;;;;;4971202;28;20035;-50
2023/03/12 05:01:28;;;;;;;13.30;6.70;;;0.50;99.90;;;;;;4972590;28;20034;-51
2023/03/12 05:03:54;;;;;;;13.30;6.15;;;0.50;99.90;;;;;;4972374;28;20227;-52
2023/03/12 05:06:21;;;;;;;11.25;5.20;;;0.50;99.90;;;;;;4972577;28;20151;-53
2023/03/12 05:08:47;;;;;;;11.15;6.00;;;0.70;99.90;;;;;;4971154;28;20215;-51
2023/03/12 05:11:14;;;;;;;11.02;5.55;;;0.50;99.90;;;;;;4972418;28;20105;-53
2023/03/12 05:13:40;;;;;;;6.25;5.10;;;0.50;99.90;;;;;;4972330;28;20117;-51
2023/03/12 05:16:06;;;;;;;7.05;4.80;;;0.60;99.90;;;;;;4972125;28;20070;-49
2023/03/12 05:18:32;;;;;;;12.32;5.07;;;0.60;99.90;;;;;;4971109;28;20031;-52
2023/03/12 05:21:03;;;;;;;7.13;4.35;;;0.70;99.90;;;;;;4973101;28;20399;-53
2023/03/12 05:23:29;;;;;;;10.13;5.35;;;0.70;99.90;;;;;;4975988;28;20379;-49
2023/03/12 05:25:55;;;;;;;9.00;5.35;;;0.70;99.90;;;;;;4974793;28;20031;-49
2023/03/12 05:28:26;;;;;;;7.15;5.15;;;0.70;99.90;;;;;;4975985;28;20019;-48
2023/03/12 05:30:53;;;;;;;8.98;6.05;;;0.80;99.90;;;;;;4976058;28;20023;-48
2023/03/12 05:33:18;;;;;;;5.75;5.18;;;0.80;99.90;;;;;;4976014;28;20045;-49
2023/03/12 05:35:44;;;;;;;8.55;5.22;;;0.80;99.90;;;;;;4974543;28;20030;-50
2023/03/12 05:38:09;;;;;;;10.50;4.88;;;0.80;99.90;;;;;;4974642;28;20060;-48
2023/03/12 05:40:35;;;;;;;10.45;5.03;;;0.90;99.90;;;;;;4975827;28;20410;-52
2023/03/12 05:43:00;;;;;;;5.47;4.55;;;0.90;99.90;;;;;;4974410;28;20126;-48
2023/03/12 05:45:26;;;;;;;8.25;5.35;;;0.90;99.90;;;;;;4975455;28;20031;-48
2023/03/12 05:47:51;;;;;;;6.03;5.18;;;0.90;99.90;;;;;;4975649;28;20027;-53
2023/03/12 05:50:17;;;;;;;8.07;4.90;;;1.00;99.90;;;;;;4975468;28;20081;-48
2023/03/12 05:52:42;;;;;;;7.95;4.70;;;1.00;99.90;;;;;;4975574;28;20027;-54
2023/03/12 05:55:08;;;;;;;10.07;5.07;;;1.10;99.90;;;;;;4975619;28;20023;-51
2023/03/12 05:57:34;;;;;;;9.63;4.68;;;1.20;99.90;;;;;;4975581;28;20023;-52
2023/03/12 05:59:59;;;;;;;7.22;4.65;;;1.20;99.90;;;;;;4974081;28;20093;-52
2023/03/12 06:02:25;;;;;;;7.78;4.47;;;1.30;99.90;;;;;;4974193;28;20034;-50
2023/03/12 06:04:50;;;;;;;9.48;4.78;;;1.40;99.90;;;;;;4974176;28;20033;-49
2023/03/12 06:07:16;;;;;;;14.55;5.97;;;1.50;99.90;;;;;;4975638;28;20129;-52
2023/03/12 06:09:41;;;;;;;8.18;4.97;;;1.50;99.90;;;;;;4973969;28;20023;-48
2023/03/12 06:12:07;;;;;;;10.30;5.55;;;1.50;99.90;;;;;;4975736;28;20491;-49
2023/03/12 06:14:33;;;;;;;10.55;4.95;;;1.50;99.90;;;;;;4974729;28;20082;-47
2023/03/12 06:16:58;;;;;;;8.88;5.93;;;1.50;99.90;;;;;;4973614;28;20026;-51
2023/03/12 06:19:24;;;;;;;16.50;4.82;;;1.50;99.90;;;;;;4973870;28;20521;-51
2023/03/12 06:21:49;;;;;;;8.07;5.18;;;1.40;99.90;;;;;;4975426;28;20114;-49
2023/03/12 06:24:15;;;;;;;8.50;4.90;;;1.30;99.90;;;;;;4975300;28;20059;-49
2023/03/12 06:26:41;;;;;;;10.02;5.72;;;1.30;99.90;;;;;;4973855;28;20056;-49
2023/03/12 06:29:06;;;;;;;9.43;5.80;;;1.20;99.90;;;;;;4975148;28;20479;-52
2023/03/12 06:31:32;;;;;;;10.40;5.05;;;1.30;99.90;;;;;;4975113;28;20394;-56
2023/03/12 06:33:57;;;;;;;6.88;5.07;;;1.30;99.90;;;;;;4974255;28;20034;-51
2023/03/12 06:36:23;;;;;;;10.23;5.93;;;1.40;99.90;;;;;;4974910;28;20075;-51
2023/03/12 06:38:49;;;;;;;8.05;5.47;;;1.40;99.90;;;;;;4974067;28;20026;-56
2023/03/12 06:41:17;;;;;;;12.05;5.95;;;1.50;99.90;;;;;;4973638;28;20396;-53
2023/03/12 06:43:43;;;;;;;9.93;5.30;;;1.60;99.90;;;;;;4974694;28;20041;-56
2023/03/12 06:46:13;;;;;;;8.70;5.70;;;1.70;99.90;;;;;;4973607;28;20495;-56
2023/03/12 06:48:40;;;;;;;10.65;6.35;;;1.70;99.90;;;;;;4973501;28;20130;-56
2023/03/12 06:51:07;;;;;;;15.50;5.93;;;1.80;99.90;;;;;;4974839;28;20511;-56
2023/03/12 06:53:32;;;;;;;10.65;5.90;;;1.70;99.90;;;;;;4974744;28;20054;-56
2023/03/12 06:55:58;;;;;;;9.65;5.50;;;1.60;99.90;;;;;;4974570;28;20561;-52
2023/03/12 06:58:24;;;;;;;9.98;6.13;;;1.70;99.90;;;;;;4974427;28;20027;-54
2023/03/12 07:00:50;;;;;;;7.15;5.75;;;1.60;99.90;;;;;;4974538;28;20039;-53
2023/03/12 07:03:16;;;;;;;8.85;6.13;;;1.60;99.90;;;;;;4974435;28;20038;-51
2023/03/12 07:05:47;;;;;;;10.48;6.13;;;1.60;99.90;;;;;;4973356;28;20019;-52
2023/03/12 07:08:13;;;;;;;10.55;6.32;;;1.70;99.90;;;;;;4974380;28;20394;-52
2023/03/12 07:10:38;;;;;;;13.40;6.88;;;1.80;99.90;;;;;;4974821;28;20094;-53
2023/03/12 07:13:04;;;;;;;11.02;6.93;;;1.80;99.90;;;;;;4974342;28;20034;-53
2023/03/12 07:15:30;;;;;;;11.02;6.47;;;1.80;99.90;;;;;;4973973;28;20525;-53
2023/03/12 07:17:59;;;;;;;10.70;6.85;;;1.80;99.90;;;;;;4974246;28;20058;-52
2023/03/12 07:20:25;;;;;;;11.77;6.85;;;1.80;99.90;;;;;;4974217;28;20054;-52
2023/03/12 07:22:50;;;;;;;17.77;8.02;;;1.80;99.90;;;;;;4972684;28;20062;-56
2023/03/12 07:25:16;;;;;;;12.82;6.70;;;1.70;99.90;;;;;;4969895;28;20023;-55
2023/03/12 07:27:41;;;;;;;14.45;7.47;;;1.70;99.90;;;;;;4971769;28;20023;-55
2023/03/12 07:30:08;;;;;;;12.00;6.07;;;1.70;99.90;;;;;;4972489;28;20502;-49
2023/03/12 07:32:35;;;;;;;9.25;7.30;;;1.70;99.90;;;;;;4977389;28;20022;-51
2023/03/12 07:35:01;;;;;;;9.60;6.88;;;1.70;99.90;;;;;;4981013;28;20025;-54
2023/03/12 07:37:27;;;;;;;11.25;6.40;;;1.70;99.90;;;;;;4973441;28;20031;-55
2023/03/12 07:39:53;;;;;;;9.60;6.18;;;1.70;99.90;;;;;;4992146;28;20572;-51
2023/03/12 07:42:19;;;;;;;12.45;6.05;;;1.70;99.90;;;;;;4993108;28;20025;-53
2023/03/12 07:44:44;;;;;;;11.35;6.80;;;1.70;99.90;;;;;;4981338;28;20038;-50
2023/03/12 07:47:10;;;;;;;11.05;6.00;;;1.80;99.90;;;;;;4973520;28;20052;-51
2023/03/12 07:49:35;;;;;;;7.13;6.03;;;1.90;99.90;;;;;;4964991;28;20045;-54
2023/03/12 07:52:01;;;;;;;19.20;7.68;;;2.00;99.90;;;;;;4953060;29;20027;-51
2023/03/12 07:54:29;;;;;;;10.88;7.20;;;2.10;99.90;;;;;;4952761;28;20023;-52
2023/03/12 07:56:55;;;;;;;11.32;6.35;;;2.20;99.90;;;;;;4952705;28;20106;-48
2023/03/12 07:59:22;;;;;;;15.13;6.70;;;2.20;99.90;;;;;;4954032;28;20525;-53
2023/03/12 08:01:48;;;;;;;9.20;6.30;;;2.30;99.90;;;;;;4963221;28;20026;-51
2023/03/12 08:04:13;;;;;;;11.10;6.95;;;2.30;99.90;;;;;;4973470;28;20049;-53
2023/03/12 08:06:41;;;;;;;13.60;7.00;;;2.40;99.90;;;;;;4972311;28;20019;-48
2023/03/12 08:09:07;;;;;;;11.85;6.45;;;2.30;99.90;;;;;;4973213;28;20486;-47
2023/03/12 08:11:33;;;;;;;15.95;7.82;;;2.30;99.90;;;;;;4973425;28;20027;-46
2023/03/12 08:13:58;;;;;;;11.88;7.03;;;2.30;99.90;;;;;;4972253;28;20376;-48
2023/03/12 08:16:24;;;;;;;12.30;7.70;;;2.30;99.90;;;;;;4973033;28;20035;-49
2023/03/12 08:18:49;;;;;;;11.57;7.72;;;2.20;99.90;;;;;;4971996;28;20042;-48
2023/03/12 08:21:15;;;;;;;11.02;8.27;;;2.10;99.90;;;;;;4980500;28;20043;-47
2023/03/12 08:23:41;;;;;;;10.77;7.40;;;2.20;99.90;;;;;;4992400;28;20402;-52
2023/03/12 08:26:07;;;;;;;10.63;7.05;;;2.30;99.90;;;;;;4990930;28;20025;-51
2023/03/12 08:28:32;;;;;;;11.95;8.88;;;2.20;99.90;;;;;;4971837;28;20030;-52
2023/03/12 08:30:59;;;;;;;16.85;9.35;;;2.20;99.90;;;;;;4972034;28;20030;-55
2023/03/12 08:33:25;;;;;;;18.50;8.70;;;2.30;99.90;;;;;;4973390;28;20403;-52
2023/03/12 08:35:51;;;;;;;15.77;9.50;;;2.40;99.90;;;;;;4973358;28;20023;-49
2023/03/12 08:38:17;;;;;;;13.10;9.15;;;2.40;99.90;;;;;;4971987;28;20438;-48
2023/03/12 08:40:43;;;;;;;16.50;10.25;;;2.30;99.90;;;;;;4972715;28;20121;-49
2023/03/12 08:43:09;;;;;;;17.38;9.05;;;2.30;99.90;;;;;;4972670;28;20078;-49
2023/03/12 08:45:35;;;;;;;11.75;9.07;;;2.40;99.90;;;;;;4971626;28;20039;-51
2023/03/12 08:48:02;;;;;;;21.08;10.15;;;2.50;99.90;;;;;;4973277;28;20023;-50
2023/03/12 08:50:30;;;;;;;11.88;8.80;;;2.50;99.90;;;;;;4972469;28;20407;-53
2023/03/12 08:52:55;;;;;;;14.18;9.95;;;2.50;99.90;;;;;;4970951;28;20034;-54
2023/03/12 08:55:21;;;;;;;15.45;10.20;;;2.60;99.90;;;;;;4970977;28;20495;-52
2023/03/12 08:57:47;;;;;;;23.65;12.02;;;2.70;99.90;;;;;;4977178;28;20380;-50
2023/03/12 09:00:14;;;;;;;15.85;9.77;;;2.70;99.90;;;;;;4977002;28;20027;-50
2023/03/12 09:02:43;;;;;;;17.33;11.32;;;2.90;99.90;;;;;;4975244;28;20033;-53
2023/03/12 09:05:08;;;;;;;16.92;10.80;;;2.90;99.90;;;;;;4975146;28;20027;-56
2023/03/12 09:07:34;;;;;;;13.52;10.20;;;3.00;99.90;;;;;;4975395;28;20023;-54
2023/03/12 09:09:59;;;;;;;15.77;10.65;;;3.00;99.90;;;;;;4976282;28;20033;-56
2023/03/12 09:12:25;;;;;;;14.43;10.65;;;3.00;99.90;;;;;;4976244;28;20038;-50
2023/03/12 09:14:51;;;;;;;19.58;11.88;;;3.10;99.90;;;;;;4975705;28;20436;-56
2023/03/12 09:17:17;;;;;;;22.35;12.43;;;3.20;99.90;;;;;;4975672;28;20033;-56
2023/03/12 09:19:43;;;;;;;17.00;12.32;;;3.10;99.90;;;;;;4975979;28;20027;-53
2023/03/12 09:22:08;;;;;;;21.05;12.77;;;3.10;99.90;;;;;;4976164;28;20078;-52
2023/03/12 09:24:34;;;;;;;25.48;15.32;;;3.10;99.90;;;;;;4975784;28;20109;-55
2023/03/12 09:27:01;;;;;;;25.40;15.40;;;3.10;99.90;;;;;;4975666;28;20038;-57
2023/03/12 09:29:26;;;;;;;26.27;17.25;;;3.10;99.90;;;;;;4975937;28;20061;-46
2023/03/12 09:31:52;;;;;;;25.17;16.92;;;3.20;99.90;;;;;;4974760;28;20056;-56
2023/03/12 09:34:17;;;;;;;31.67;17.92;;;3.30;99.90;;;;;;4975798;28;20077;-46
2023/03/12 09:36:43;;;;;;;33.15;17.35;;;3.30;99.90;;;;;;4975727;28;20039;-58
2023/03/12 09:39:09;;;;;;;25.00;17.58;;;3.30;99.90;;;;;;4974848;28;20039;-54
2023/03/12 09:41:38;;;;;;;30.58;19.30;;;3.40;99.90;;;;;;4975676;28;20565;-54
2023/03/12 09:44:13;;;;;;;23.98;18.35;;;3.50;99.90;;;;;;4975707;28;20031;-52
2023/03/12 09:46:50;;;;;;;31.80;18.00;;;3.60;99.90;;;;;;4976373;28;20023;-56
2023/03/12 09:49:33;;;;;;;28.42;16.35;;;3.70;99.90;;;;;;4975746;28;20025;-55
2023/03/12 09:52:02;;;;;;;29.75;18.65;;;3.70;99.90;;;;;;4974338;28;20034;-53
2023/03/12 09:54:43;;;;;;;26.67;17.02;;;3.80;99.90;;;;;;4974526;28;20050;-55
2023/03/12 09:57:15;;;;;;;24.00;16.90;;;3.70;99.90;;;;;;4975725;28;20077;-56
2023/03/12 09:59:40;;;;;;;26.55;18.13;;;3.80;99.90;;;;;;4975673;28;20094;-57
2023/03/12 10:02:39;;;;;;;24.48;16.30;;;3.80;99.90;;;;;;4974872;28;20534;-56
2023/03/12 10:05:16;;;;;;;28.20;16.67;;;3.70;99.90;;;;;;4974496;28;20022;-49
2023/03/12 10:07:52;;;;;;;21.88;17.27;;;3.70;99.90;;;;;;4974929;28;20110;-58
2023/03/12 10:10:34;;;;;;;23.23;17.40;;;3.70;99.90;;;;;;4975655;28;20019;-55
2023/03/12 10:13:32;;;;;;;32.72;15.25;;;3.70;99.90;;;;;;4975738;28;20053;-59
2023/03/12 10:16:15;;;;;;;22.38;15.23;;;3.80;99.90;;;;;;4974531;28;20455;-57
2023/03/12 10:19:29;;;;;;;29.27;17.05;;;3.80;99.90;;;;;;4973744;28;20062;-58
2023/03/12 10:22:04;;;;;;;21.35;15.95;;;3.90;99.90;;;;;;4970950;28;20039;-55
2023/03/12 10:24:59;;;;;;;22.85;13.57;;;4.00;99.90;;;;;;4974781;28;20090;-51
2023/03/12 10:27:27;;;;;;;21.73;14.07;;;4.10;99.90;;;;;;4974273;28;20031;-55
2023/03/12 10:29:54;;;;;;;29.48;15.52;;;4.20;99.90;;;;;;4974831;28;20023;-54
2023/03/12 10:32:43;;;;;;;25.65;13.48;;;4.10;99.90;;;;;;4972976;28;20026;-51
2023/03/12 10:35:16;;;;;;;27.77;15.82;;;4.00;99.90;;;;;;4956954;28;20024;-56
2023/03/12 10:37:56;;;;;;;20.10;14.60;;;4.10;99.90;;;;;;4957884;28;20027;-52
2023/03/12 10:40:30;;;;;;;22.88;15.38;;;4.10;99.90;;;;;;4966544;28;20033;-59
2023/03/12 10:42:56;;;;;;;22.90;14.93;;;4.20;99.90;;;;;;4973485;28;20027;-55
2023/03/12 10:45:24;;;;;;;28.63;15.60;;;4.30;99.90;;;;;;4972216;28;20026;-58
2023/03/12 10:47:59;;;;;;;27.25;15.50;;;4.20;99.90;;;;;;4974254;28;20089;-53
2023/03/12 10:50:30;;;;;;;25.52;15.57;;;4.30;99.90;;;;;;4974123;28;20051;-51
2023/03/12 10:53:17;;;;;;;26.25;15.68;;;4.30;99.90;;;;;;4972701;28;20027;-52
2023/03/12 10:55:42;;;;;;;21.67;15.27;;;4.40;99.90;;;;;;4973608;28;20084;-52
2023/03/12 10:58:22;;;;;;;20.25;13.98;;;4.50;99.90;;;;;;4973616;28;20023;-54
2023/03/12 11:00:57;;;;;;;21.25;15.02;;;4.70;99.90;;;;;;4974192;28;20086;-59
2023/03/12 11:03:28;;;;;;;23.00;13.00;;;4.80;99.90;;;;;;4973219;28;20033;-54
2023/03/12 11:05:59;;;;;;;22.00;15.55;;;4.90;99.90;;;;;;4972696;28;20266;-49
2023/03/12 11:08:30;;;;;;;20.80;13.27;;;5.00;99.90;;;;;;4974185;28;20027;-57
2023/03/12 11:10:58;;;;;;;22.60;14.10;;;5.00;99.90;;;;;;4974412;28;20034;-55
2023/03/12 11:13:33;;;;;;;21.02;14.32;;;5.10;99.90;;;;;;4972820;28;20034;-51
2023/03/12 11:16:23;;;;;;;25.40;15.20;;;5.20;99.90;;;;;;4972569;28;20085;-56
2023/03/12 11:19:00;;;;;;;16.60;13.32;;;5.40;99.90;;;;;;4971038;28;20465;-55
2023/03/12 11:21:27;;;;;;;23.50;14.32;;;5.50;99.90;;;;;;4973550;28;20045;-59
2023/03/12 11:23:56;;;;;;;21.33;15.20;;;5.60;99.90;;;;;;4973261;28;20410;-55
2023/03/12 11:26:32;;;;;;;20.30;15.70;;;5.60;99.90;;;;;;4972977;28;20507;-54
2023/03/12 11:29:03;;;;;;;24.23;15.32;;;5.50;99.90;;;;;;4973516;28;20031;-57
2023/03/12 11:31:44;;;;;;;21.92;16.80;;;5.50;99.90;;;;;;4973559;28;20137;-54
2023/03/12 11:34:21;;;;;;;19.58;16.08;;;5.50;99.90;;;;;;4970891;28;20027;-60
2023/03/12 11:37:25;;;;;;;22.88;16.48;;;5.60;99.90;;;;;;4969129;28;20022;-58
2023/03/12 11:40:10;;;;;;;37.45;24.48;;;5.70;99.90;;;;;;4968222;28;20035;-59
2023/03/12 11:42:54;;;;;;;31.57;20.53;;;5.80;99.90;;;;;;4972125;28;20442;-57
2023/03/12 11:45:52;;;;;;;25.58;15.70;;;6.00;99.90;;;;;;4972046;28;20843;-56
2023/03/12 11:48:52;;;;;;;21.27;14.43;;;6.20;99.90;;;;;;4972670;28;20096;-56
2023/03/12 11:51:51;;;;;;;16.90;13.98;;;6.40;99.90;;;;;;4949427;28;20045;-53
2023/03/12 11:54:32;;;;;;;19.50;14.43;;;6.30;99.90;;;;;;4972452;28;20026;-53
2023/03/12 11:57:11;;;;;;;20.20;14.38;;;6.30;99.90;;;;;;4973185;28;20038;-53
2023/03/12 11:59:43;;;;;;;17.92;14.35;;;6.30;99.90;;;;;;4973192;28;20026;-55
2023/03/12 12:02:43;;;;;;;20.83;14.10;;;6.30;99.90;;;;;;4972864;28;20027;-58
2023/03/12 12:05:24;;;;;;;18.80;13.23;;;6.30;99.90;;;;;;4968090;28;20047;-56
2023/03/12 12:08:04;;;;;;;18.58;12.68;;;6.40;99.90;;;;;;4971538;28;20069;-59
2023/03/12 12:10:52;;;;;;;18.55;13.07;;;6.50;99.90;;;;;;4971638;28;20030;-53
2023/03/12 12:13:51;;;;;;;17.08;12.18;;;6.60;99.90;;;;;;4972080;28;20117;-55
2023/03/12 12:16:32;;;;;;;15.90;12.70;;;6.80;99.90;;;;;;5009763;23;20042;-50
2023/03/12 12:19:35;;;;;;;14.70;12.52;;;6.90;99.90;;;;;;5006630;28;20572;-47
2023/03/12 12:22:29;;;;;;;18.15;13.40;;;7.20;99.90;;;;;;4988184;28;20069;-46
2023/03/12 12:25:26;;;;;;;15.18;12.32;;;7.30;99.90;;;;;;4991466;28;20033;-46
2023/03/12 12:28:14;;;;;;;15.57;12.55;;;7.50;99.90;;;;;;4965901;28;20038;-48
2023/03/12 12:30:53;;;;;;;18.80;13.40;;;7.60;99.90;;;;;;4991476;28;20034;-51
2023/03/12 12:33:26;;;;;;;15.18;10.93;;;7.80;99.90;;;;;;4992152;28;20399;-49
2023/03/12 12:35:52;;;;;;;21.58;12.45;;;7.90;99.90;;;;;;4990681;28;20037;-52
2023/03/12 12:38:29;;;;;;;14.45;12.70;;;7.90;99.90;;;;;;4991819;28;20502;-48
2023/03/12 12:41:25;;;;;;;18.83;13.90;;;7.90;99.90;;;;;;4990475;28;20122;-48
2023/03/12 12:44:03;;;;;;;;;;;7.90;99.90;;;;;;4990695;28;20111;-47
2023/03/12 12:46:38;;;;;;;17.17;12.35;;;7.90;99.90;;;;;;4991207;28;19906;-49
2023/03/12 12:49:18;;;;;;;17.30;12.38;;;8.00;99.90;;;;;;4971421;28;20033;-51
2023/03/12 12:51:48;;;;;;;16.85;11.90;;;8.00;99.90;;;;;;4984922;28;20034;-46
2023/03/12 12:54:32;;;;;;;14.50;11.85;;;8.10;99.90;;;;;;4991929;28;20089;-48
2023/03/12 12:57:07;;;;;;;17.77;11.82;;;8.20;99.90;;;;;;4991226;28;20038;-53
2023/03/12 12:59:33;;;;;;;15.70;11.63;;;8.30;99.90;;;;;;4991663;28;20537;-47